LTBJ/ADB METAR and TAF weather

Enter ICAO airport designator
Station Type Date Time Source
LTBJ METAR 2024/07/15 20:20 UTC NOAA

LTBJ 152020Z 35016KT CAVOK 30/14 Q1005 NOSIG


Station Type Date Time Source
LTBJ Decoded METAR 2024/07/15 20:20 UTC NOAA

Izmir / Adnan Menderes, Turkey (LTBJ) 38-16N 027-09E 120M
Jul 15, 2024 - 04:20 PM EDT / 2024.07.15 2020 UTC
Wind: from the N (350 degrees) at 18 MPH (16 KT):0
Visibility: greater than 7 mile(s):0
Temperature: 86 F (30 C)
Dew Point: 57 F (14 C)
Relative Humidity: 37%
Pressure (altimeter): 29.68 in. Hg (1005 hPa)
ob: LTBJ 152020Z 35016KT CAVOK 30/14 Q1005 NOSIG
cycle: 20

Station Type Date Time Source
LTBJ TAF 2024/07/15 18:03 UTC NOAA